sensor_id;sensor_type;location;lat;lon;timestamp;P1;durP1;ratioP1;P2;durP2;ratioP2
79468;SDS011;68936;52.526;13.326;2023-05-07T00:02:00;7.40;;;5.03;;
79468;SDS011;68936;52.526;13.326;2023-05-07T00:04:26;7.03;;;5.03;;
79468;SDS011;68936;52.526;13.326;2023-05-07T00:06:53;5.65;;;4.50;;
79468;SDS011;68936;52.526;13.326;2023-05-07T00:09:20;5.57;;;4.28;;
79468;SDS011;68936;52.526;13.326;2023-05-07T00:11:46;8.13;;;5.07;;
79468;SDS011;68936;52.526;13.326;2023-05-07T00:14:14;6.40;;;5.13;;
79468;SDS011;68936;52.526;13.326;2023-05-07T00:16:40;7.95;;;5.25;;
79468;SDS011;68936;52.526;13.326;2023-05-07T00:19:06;6.65;;;4.70;;
79468;SDS011;68936;52.526;13.326;2023-05-07T00:21:32;6.05;;;4.70;;
79468;SDS011;68936;52.526;13.326;2023-05-07T00:23:58;7.32;;;4.63;;
79468;SDS011;68936;52.526;13.326;2023-05-07T00:26:24;6.80;;;5.05;;
79468;SDS011;68936;52.526;13.326;2023-05-07T00:28:50;5.97;;;4.53;;
79468;SDS011;68936;52.526;13.326;2023-05-07T00:31:16;6.53;;;4.68;;
79468;SDS011;68936;52.526;13.326;2023-05-07T00:33:44;8.57;;;5.00;;
79468;SDS011;68936;52.526;13.326;2023-05-07T00:36:11;6.25;;;4.72;;
79468;SDS011;68936;52.526;13.326;2023-05-07T00:38:37;7.15;;;5.13;;
79468;SDS011;68936;52.526;13.326;2023-05-07T00:41:03;7.40;;;5.25;;
79468;SDS011;68936;52.526;13.326;2023-05-07T00:43:31;7.40;;;5.18;;
79468;SDS011;68936;52.526;13.326;2023-05-07T00:45:58;6.60;;;4.70;;
79468;SDS011;68936;52.526;13.326;2023-05-07T00:48:24;6.82;;;5.10;;
79468;SDS011;68936;52.526;13.326;2023-05-07T00:50:50;7.18;;;5.00;;
79468;SDS011;68936;52.526;13.326;2023-05-07T00:53:16;7.40;;;5.65;;
79468;SDS011;68936;52.526;13.326;2023-05-07T00:55:42;6.18;;;5.00;;
79468;SDS011;68936;52.526;13.326;2023-05-07T00:58:11;7.25;;;5.40;;
79468;SDS011;68936;52.526;13.326;2023-05-07T01:00:37;7.35;;;5.60;;
79468;SDS011;68936;52.526;13.326;2023-05-07T01:03:03;6.65;;;4.50;;
79468;SDS011;68936;52.526;13.326;2023-05-07T01:05:30;7.88;;;5.10;;
79468;SDS011;68936;52.526;13.326;2023-05-07T01:07:59;6.50;;;5.00;;
79468;SDS011;68936;52.526;13.326;2023-05-07T01:10:25;6.60;;;5.32;;
79468;SDS011;68936;52.526;13.326;2023-05-07T01:12:52;7.07;;;5.03;;
79468;SDS011;68936;52.526;13.326;2023-05-07T01:15:19;8.23;;;4.90;;
79468;SDS011;68936;52.526;13.326;2023-05-07T01:17:45;8.15;;;5.47;;
79468;SDS011;68936;52.526;13.326;2023-05-07T01:20:11;6.55;;;4.93;;
79468;SDS011;68936;52.526;13.326;2023-05-07T01:22:38;6.00;;;5.18;;
79468;SDS011;68936;52.526;13.326;2023-05-07T01:25:05;8.35;;;5.40;;
79468;SDS011;68936;52.526;13.326;2023-05-07T01:27:33;6.60;;;5.00;;
79468;SDS011;68936;52.526;13.326;2023-05-07T01:30:00;6.60;;;4.97;;
79468;SDS011;68936;52.526;13.326;2023-05-07T01:32:45;6.07;;;4.60;;
79468;SDS011;68936;52.526;13.326;2023-05-07T01:35:15;6.57;;;4.90;;
79468;SDS011;68936;52.526;13.326;2023-05-07T01:37:44;6.78;;;5.25;;
79468;SDS011;68936;52.526;13.326;2023-05-07T01:40:13;6.63;;;5.32;;
79468;SDS011;68936;52.526;13.326;2023-05-07T01:42:42;7.07;;;5.03;;
79468;SDS011;68936;52.526;13.326;2023-05-07T01:45:08;7.72;;;5.32;;
79468;SDS011;68936;52.526;13.326;2023-05-07T01:47:35;6.82;;;4.88;;
79468;SDS011;68936;52.526;13.326;2023-05-07T01:50:01;6.63;;;4.88;;
79468;SDS011;68936;52.526;13.326;2023-05-07T01:52:27;8.13;;;5.40;;
79468;SDS011;68936;52.526;13.326;2023-05-07T01:54:54;7.47;;;4.95;;
79468;SDS011;68936;52.526;13.326;2023-05-07T01:57:20;6.53;;;4.78;;
79468;SDS011;68936;52.526;13.326;2023-05-07T01:59:46;7.75;;;5.05;;
79468;SDS011;68936;52.526;13.326;2023-05-07T02:02:16;6.07;;;4.60;;
79468;SDS011;68936;52.526;13.326;2023-05-07T02:04:44;5.80;;;4.68;;
79468;SDS011;68936;52.526;13.326;2023-05-07T02:07:10;6.55;;;5.07;;
79468;SDS011;68936;52.526;13.326;2023-05-07T02:09:36;6.35;;;5.15;;
79468;SDS011;68936;52.526;13.326;2023-05-07T02:12:04;6.85;;;5.35;;
79468;SDS011;68936;52.526;13.326;2023-05-07T02:14:31;5.63;;;4.63;;
79468;SDS011;68936;52.526;13.326;2023-05-07T02:16:57;7.78;;;4.78;;
79468;SDS011;68936;52.526;13.326;2023-05-07T02:19:23;7.65;;;5.63;;
79468;SDS011;68936;52.526;13.326;2023-05-07T02:21:49;7.50;;;5.63;;
79468;SDS011;68936;52.526;13.326;2023-05-07T02:24:15;9.27;;;5.82;;
79468;SDS011;68936;52.526;13.326;2023-05-07T02:26:41;7.00;;;5.60;;
79468;SDS011;68936;52.526;13.326;2023-05-07T02:29:07;6.85;;;4.97;;
79468;SDS011;68936;52.526;13.326;2023-05-07T02:31:33;6.47;;;4.50;;
79468;SDS011;68936;52.526;13.326;2023-05-07T02:34:02;6.25;;;4.63;;
79468;SDS011;68936;52.526;13.326;2023-05-07T02:36:30;6.57;;;4.53;;
79468;SDS011;68936;52.526;13.326;2023-05-07T02:38:56;7.70;;;5.30;;
79468;SDS011;68936;52.526;13.326;2023-05-07T02:41:22;6.38;;;4.78;;
79468;SDS011;68936;52.526;13.326;2023-05-07T02:43:48;7.03;;;4.93;;
79468;SDS011;68936;52.526;13.326;2023-05-07T02:46:14;6.38;;;4.68;;
79468;SDS011;68936;52.526;13.326;2023-05-07T02:48:40;6.53;;;4.65;;
79468;SDS011;68936;52.526;13.326;2023-05-07T02:51:07;6.75;;;5.15;;
79468;SDS011;68936;52.526;13.326;2023-05-07T02:53:33;8.93;;;6.85;;
79468;SDS011;68936;52.526;13.326;2023-05-07T02:55:59;11.32;;;8.55;;
79468;SDS011;68936;52.526;13.326;2023-05-07T02:58:26;6.63;;;5.30;;
79468;SDS011;68936;52.526;13.326;2023-05-07T03:00:52;7.82;;;6.32;;
79468;SDS011;68936;52.526;13.326;2023-05-07T03:03:19;8.13;;;6.20;;
79468;SDS011;68936;52.526;13.326;2023-05-07T03:05:49;8.00;;;5.97;;
79468;SDS011;68936;52.526;13.326;2023-05-07T03:08:17;7.85;;;6.18;;
79468;SDS011;68936;52.526;13.326;2023-05-07T03:10:43;8.75;;;6.07;;
79468;SDS011;68936;52.526;13.326;2023-05-07T03:13:12;9.15;;;7.15;;
79468;SDS011;68936;52.526;13.326;2023-05-07T03:15:40;7.30;;;6.00;;
79468;SDS011;68936;52.526;13.326;2023-05-07T03:18:06;7.70;;;5.40;;
79468;SDS011;68936;52.526;13.326;2023-05-07T03:20:32;7.38;;;5.43;;
79468;SDS011;68936;52.526;13.326;2023-05-07T03:22:58;7.68;;;5.18;;
79468;SDS011;68936;52.526;13.326;2023-05-07T03:25:24;6.90;;;5.28;;
79468;SDS011;68936;52.526;13.326;2023-05-07T03:27:51;9.68;;;6.22;;
79468;SDS011;68936;52.526;13.326;2023-05-07T03:30:17;6.22;;;4.75;;
79468;SDS011;68936;52.526;13.326;2023-05-07T03:32:43;6.82;;;5.18;;
79468;SDS011;68936;52.526;13.326;2023-05-07T03:35:09;6.53;;;4.78;;
79468;SDS011;68936;52.526;13.326;2023-05-07T03:37:37;7.72;;;5.68;;
79468;SDS011;68936;52.526;13.326;2023-05-07T03:40:06;7.43;;;5.50;;
79468;SDS011;68936;52.526;13.326;2023-05-07T03:42:34;7.82;;;5.05;;
79468;SDS011;68936;52.526;13.326;2023-05-07T03:45:00;6.50;;;4.80;;
79468;SDS011;68936;52.526;13.326;2023-05-07T03:47:26;9.02;;;4.93;;
79468;SDS011;68936;52.526;13.326;2023-05-07T03:49:54;7.15;;;5.50;;
79468;SDS011;68936;52.526;13.326;2023-05-07T03:52:24;5.60;;;4.90;;
79468;SDS011;68936;52.526;13.326;2023-05-07T03:54:53;7.13;;;4.85;;
79468;SDS011;68936;52.526;13.326;2023-05-07T03:57:19;5.85;;;4.63;;
79468;SDS011;68936;52.526;13.326;2023-05-07T03:59:45;7.30;;;5.32;;
79468;SDS011;68936;52.526;13.326;2023-05-07T04:02:14;7.30;;;4.85;;
79468;SDS011;68936;52.526;13.326;2023-05-07T04:04:40;6.43;;;4.55;;
79468;SDS011;68936;52.526;13.326;2023-05-07T04:07:08;7.80;;;5.25;;
79468;SDS011;68936;52.526;13.326;2023-05-07T04:09:34;6.28;;;4.93;;
79468;SDS011;68936;52.526;13.326;2023-05-07T04:12:01;6.20;;;4.75;;
79468;SDS011;68936;52.526;13.326;2023-05-07T04:14:27;7.63;;;5.22;;
79468;SDS011;68936;52.526;13.326;2023-05-07T04:16:53;7.57;;;5.03;;
79468;SDS011;68936;52.526;13.326;2023-05-07T04:19:21;7.10;;;5.45;;
79468;SDS011;68936;52.526;13.326;2023-05-07T04:21:47;6.30;;;4.82;;
79468;SDS011;68936;52.526;13.326;2023-05-07T04:24:13;5.88;;;4.65;;
79468;SDS011;68936;52.526;13.326;2023-05-07T04:26:39;8.13;;;5.25;;
79468;SDS011;68936;52.526;13.326;2023-05-07T04:29:05;6.47;;;5.07;;
79468;SDS011;68936;52.526;13.326;2023-05-07T04:31:31;6.32;;;4.45;;
79468;SDS011;68936;52.526;13.326;2023-05-07T04:33:57;5.82;;;4.57;;
79468;SDS011;68936;52.526;13.326;2023-05-07T04:36:26;5.97;;;4.47;;
79468;SDS011;68936;52.526;13.326;2023-05-07T04:38:52;5.97;;;4.63;;
79468;SDS011;68936;52.526;13.326;2023-05-07T04:41:18;5.60;;;4.25;;
79468;SDS011;68936;52.526;13.326;2023-05-07T04:43:45;6.38;;;4.32;;
79468;SDS011;68936;52.526;13.326;2023-05-07T04:46:11;5.68;;;4.20;;
79468;SDS011;68936;52.526;13.326;2023-05-07T04:48:37;7.60;;;4.63;;
79468;SDS011;68936;52.526;13.326;2023-05-07T04:51:06;6.82;;;4.88;;
79468;SDS011;68936;52.526;13.326;2023-05-07T04:53:32;6.72;;;4.70;;
79468;SDS011;68936;52.526;13.326;2023-05-07T04:55:58;7.28;;;4.93;;
79468;SDS011;68936;52.526;13.326;2023-05-07T04:58:24;5.85;;;4.53;;
79468;SDS011;68936;52.526;13.326;2023-05-07T05:00:50;5.82;;;4.55;;
79468;SDS011;68936;52.526;13.326;2023-05-07T05:03:19;5.90;;;4.68;;
79468;SDS011;68936;52.526;13.326;2023-05-07T05:05:47;6.05;;;4.72;;
79468;SDS011;68936;52.526;13.326;2023-05-07T05:08:14;8.15;;;5.07;;
79468;SDS011;68936;52.526;13.326;2023-05-07T05:10:40;6.82;;;5.22;;
79468;SDS011;68936;52.526;13.326;2023-05-07T05:13:07;5.82;;;4.80;;
79468;SDS011;68936;52.526;13.326;2023-05-07T05:15:34;5.80;;;4.78;;
79468;SDS011;68936;52.526;13.326;2023-05-07T05:18:00;5.63;;;4.43;;
79468;SDS011;68936;52.526;13.326;2023-05-07T05:20:26;6.10;;;4.70;;
79468;SDS011;68936;52.526;13.326;2023-05-07T05:22:52;6.90;;;4.72;;
79468;SDS011;68936;52.526;13.326;2023-05-07T05:25:18;5.15;;;4.35;;
79468;SDS011;68936;52.526;13.326;2023-05-07T05:27:44;7.88;;;4.68;;
79468;SDS011;68936;52.526;13.326;2023-05-07T05:30:10;4.93;;;4.00;;
79468;SDS011;68936;52.526;13.326;2023-05-07T05:32:36;5.38;;;4.30;;
79468;SDS011;68936;52.526;13.326;2023-05-07T05:35:02;6.70;;;4.68;;
79468;SDS011;68936;52.526;13.326;2023-05-07T05:37:28;9.68;;;4.30;;
79468;SDS011;68936;52.526;13.326;2023-05-07T05:39:56;4.88;;;3.97;;
79468;SDS011;68936;52.526;13.326;2023-05-07T05:42:22;5.38;;;4.40;;
79468;SDS011;68936;52.526;13.326;2023-05-07T05:44:48;6.95;;;4.50;;
79468;SDS011;68936;52.526;13.326;2023-05-07T05:47:14;5.43;;;4.18;;
79468;SDS011;68936;52.526;13.326;2023-05-07T05:49:43;6.82;;;4.88;;
79468;SDS011;68936;52.526;13.326;2023-05-07T05:52:11;5.30;;;4.13;;
79468;SDS011;68936;52.526;13.326;2023-05-07T05:54:38;5.57;;;4.22;;
79468;SDS011;68936;52.526;13.326;2023-05-07T05:57:06;6.35;;;3.85;;
79468;SDS011;68936;52.526;13.326;2023-05-07T05:59:32;5.68;;;4.55;;
79468;SDS011;68936;52.526;13.326;2023-05-07T06:01:58;5.25;;;4.40;;
79468;SDS011;68936;52.526;13.326;2023-05-07T06:04:24;5.85;;;4.20;;
79468;SDS011;68936;52.526;13.326;2023-05-07T06:06:50;6.53;;;4.43;;
79468;SDS011;68936;52.526;13.326;2023-05-07T06:09:18;6.78;;;4.60;;
79468;SDS011;68936;52.526;13.326;2023-05-07T06:11:45;4.95;;;4.22;;
79468;SDS011;68936;52.526;13.326;2023-05-07T06:14:11;4.97;;;4.22;;
79468;SDS011;68936;52.526;13.326;2023-05-07T06:16:37;6.18;;;4.40;;
79468;SDS011;68936;52.526;13.326;2023-05-07T06:19:03;8.18;;;4.70;;
79468;SDS011;68936;52.526;13.326;2023-05-07T06:21:32;8.52;;;3.83;;
79468;SDS011;68936;52.526;13.326;2023-05-07T06:23:58;6.28;;;3.72;;
79468;SDS011;68936;52.526;13.326;2023-05-07T06:26:24;7.15;;;4.30;;
79468;SDS011;68936;52.526;13.326;2023-05-07T06:28:50;6.88;;;3.90;;
79468;SDS011;68936;52.526;13.326;2023-05-07T06:31:19;6.30;;;3.75;;
79468;SDS011;68936;52.526;13.326;2023-05-07T06:33:49;5.68;;;4.22;;
79468;SDS011;68936;52.526;13.326;2023-05-07T06:36:17;10.60;;;4.80;;
79468;SDS011;68936;52.526;13.326;2023-05-07T06:38:43;8.75;;;4.80;;
79468;SDS011;68936;52.526;13.326;2023-05-07T06:41:11;10.55;;;5.28;;
79468;SDS011;68936;52.526;13.326;2023-05-07T06:43:37;9.18;;;4.22;;
79468;SDS011;68936;52.526;13.326;2023-05-07T06:46:03;7.53;;;4.75;;
79468;SDS011;68936;52.526;13.326;2023-05-07T06:48:30;7.70;;;5.40;;
79468;SDS011;68936;52.526;13.326;2023-05-07T06:50:56;8.50;;;4.40;;
79468;SDS011;68936;52.526;13.326;2023-05-07T06:53:23;10.45;;;5.07;;
79468;SDS011;68936;52.526;13.326;2023-05-07T06:55:49;7.57;;;4.60;;
79468;SDS011;68936;52.526;13.326;2023-05-07T06:58:15;9.00;;;4.82;;
79468;SDS011;68936;52.526;13.326;2023-05-07T07:00:41;8.27;;;5.00;;
79468;SDS011;68936;52.526;13.326;2023-05-07T07:03:07;7.95;;;4.93;;
79468;SDS011;68936;52.526;13.326;2023-05-07T07:05:33;8.73;;;4.35;;
79468;SDS011;68936;52.526;13.326;2023-05-07T07:08:02;9.70;;;4.68;;
79468;SDS011;68936;52.526;13.326;2023-05-07T07:10:28;7.43;;;4.53;;
79468;SDS011;68936;52.526;13.326;2023-05-07T07:12:54;8.05;;;4.50;;
79468;SDS011;68936;52.526;13.326;2023-05-07T07:15:20;7.75;;;4.53;;
79468;SDS011;68936;52.526;13.326;2023-05-07T07:17:50;12.57;;;5.10;;
79468;SDS011;68936;52.526;13.326;2023-05-07T07:20:16;8.55;;;4.82;;
79468;SDS011;68936;52.526;13.326;2023-05-07T07:22:42;8.07;;;4.38;;
79468;SDS011;68936;52.526;13.326;2023-05-07T07:25:10;10.95;;;4.90;;
79468;SDS011;68936;52.526;13.326;2023-05-07T07:27:37;6.65;;;4.68;;
79468;SDS011;68936;52.526;13.326;2023-05-07T07:30:05;8.52;;;4.78;;
79468;SDS011;68936;52.526;13.326;2023-05-07T07:32:31;12.55;;;5.38;;
79468;SDS011;68936;52.526;13.326;2023-05-07T07:34:58;9.27;;;4.85;;
79468;SDS011;68936;52.526;13.326;2023-05-07T07:37:24;12.85;;;4.95;;
79468;SDS011;68936;52.526;13.326;2023-05-07T07:39:50;7.90;;;4.68;;
79468;SDS011;68936;52.526;13.326;2023-05-07T07:42:16;7.60;;;4.78;;
79468;SDS011;68936;52.526;13.326;2023-05-07T07:44:43;12.73;;;5.22;;
79468;SDS011;68936;52.526;13.326;2023-05-07T07:47:09;11.30;;;5.75;;
79468;SDS011;68936;52.526;13.326;2023-05-07T07:49:35;10.63;;;5.22;;
79468;SDS011;68936;52.526;13.326;2023-05-07T07:52:01;11.13;;;5.72;;
79468;SDS011;68936;52.526;13.326;2023-05-07T07:54:27;10.80;;;5.38;;
79468;SDS011;68936;52.526;13.326;2023-05-07T07:56:54;9.55;;;5.22;;
79468;SDS011;68936;52.526;13.326;2023-05-07T07:59:20;10.82;;;5.90;;
79468;SDS011;68936;52.526;13.326;2023-05-07T08:01:46;8.45;;;5.38;;
79468;SDS011;68936;52.526;13.326;2023-05-07T08:04:15;11.23;;;5.90;;
79468;SDS011;68936;52.526;13.326;2023-05-07T08:06:41;10.85;;;6.10;;
79468;SDS011;68936;52.526;13.326;2023-05-07T08:09:10;11.65;;;5.93;;
79468;SDS011;68936;52.526;13.326;2023-05-07T08:11:36;11.77;;;7.22;;
79468;SDS011;68936;52.526;13.326;2023-05-07T08:14:04;11.48;;;6.22;;
79468;SDS011;68936;52.526;13.326;2023-05-07T08:16:30;8.05;;;4.93;;
79468;SDS011;68936;52.526;13.326;2023-05-07T08:18:58;10.43;;;5.20;;
79468;SDS011;68936;52.526;13.326;2023-05-07T08:21:24;10.80;;;6.18;;
79468;SDS011;68936;52.526;13.326;2023-05-07T08:23:51;7.25;;;4.85;;
79468;SDS011;68936;52.526;13.326;2023-05-07T08:26:17;6.70;;;4.88;;
79468;SDS011;68936;52.526;13.326;2023-05-07T08:28:43;9.93;;;5.28;;
79468;SDS011;68936;52.526;13.326;2023-05-07T08:31:09;6.25;;;4.70;;
79468;SDS011;68936;52.526;13.326;2023-05-07T08:33:35;11.93;;;5.53;;
79468;SDS011;68936;52.526;13.326;2023-05-07T08:36:02;8.60;;;4.93;;
79468;SDS011;68936;52.526;13.326;2023-05-07T08:38:30;8.68;;;4.80;;
79468;SDS011;68936;52.526;13.326;2023-05-07T08:40:56;8.98;;;5.05;;
79468;SDS011;68936;52.526;13.326;2023-05-07T08:43:27;9.93;;;5.50;;
79468;SDS011;68936;52.526;13.326;2023-05-07T08:45:54;8.38;;;5.15;;
79468;SDS011;68936;52.526;13.326;2023-05-07T08:48:26;9.13;;;5.45;;
79468;SDS011;68936;52.526;13.326;2023-05-07T08:50:53;8.93;;;5.30;;
79468;SDS011;68936;52.526;13.326;2023-05-07T08:53:19;7.68;;;5.25;;
79468;SDS011;68936;52.526;13.326;2023-05-07T08:55:46;10.02;;;5.35;;
79468;SDS011;68936;52.526;13.326;2023-05-07T08:58:12;8.82;;;5.00;;
79468;SDS011;68936;52.526;13.326;2023-05-07T09:00:39;7.93;;;4.78;;
79468;SDS011;68936;52.526;13.326;2023-05-07T09:03:05;9.38;;;4.82;;
79468;SDS011;68936;52.526;13.326;2023-05-07T09:05:37;12.27;;;5.65;;
79468;SDS011;68936;52.526;13.326;2023-05-07T09:08:03;12.30;;;5.55;;
79468;SDS011;68936;52.526;13.326;2023-05-07T09:10:29;12.13;;;5.90;;
79468;SDS011;68936;52.526;13.326;2023-05-07T09:12:55;11.25;;;5.18;;
79468;SDS011;68936;52.526;13.326;2023-05-07T09:15:23;9.43;;;4.93;;
79468;SDS011;68936;52.526;13.326;2023-05-07T09:17:52;7.88;;;4.65;;
79468;SDS011;68936;52.526;13.326;2023-05-07T09:20:18;11.25;;;5.40;;
79468;SDS011;68936;52.526;13.326;2023-05-07T09:22:44;9.27;;;5.28;;
79468;SDS011;68936;52.526;13.326;2023-05-07T09:25:10;8.95;;;5.50;;
79468;SDS011;68936;52.526;13.326;2023-05-07T09:27:37;9.88;;;5.30;;
79468;SDS011;68936;52.526;13.326;2023-05-07T09:30:05;7.50;;;4.78;;
79468;SDS011;68936;52.526;13.326;2023-05-07T09:32:35;8.05;;;4.95;;
79468;SDS011;68936;52.526;13.326;2023-05-07T09:35:03;8.60;;;4.82;;
79468;SDS011;68936;52.526;13.326;2023-05-07T09:37:30;9.73;;;5.68;;
79468;SDS011;68936;52.526;13.326;2023-05-07T09:39:58;7.68;;;4.80;;
79468;SDS011;68936;52.526;13.326;2023-05-07T09:42:24;8.57;;;5.15;;
79468;SDS011;68936;52.526;13.326;2023-05-07T09:44:59;9.57;;;5.27;;
79468;SDS011;68936;52.526;13.326;2023-05-07T09:47:25;10.77;;;5.45;;
79468;SDS011;68936;52.526;13.326;2023-05-07T09:49:55;8.10;;;4.97;;
79468;SDS011;68936;52.526;13.326;2023-05-07T09:52:27;9.77;;;4.78;;
79468;SDS011;68936;52.526;13.326;2023-05-07T09:55:00;11.00;;;5.35;;
79468;SDS011;68936;52.526;13.326;2023-05-07T09:57:30;8.98;;;5.22;;
79468;SDS011;68936;52.526;13.326;2023-05-07T09:59:56;9.57;;;5.07;;
79468;SDS011;68936;52.526;13.326;2023-05-07T10:02:24;9.57;;;5.20;;
79468;SDS011;68936;52.526;13.326;2023-05-07T10:04:51;9.88;;;5.15;;
79468;SDS011;68936;52.526;13.326;2023-05-07T10:07:18;7.72;;;4.70;;
79468;SDS011;68936;52.526;13.326;2023-05-07T10:09:44;6.75;;;4.57;;
79468;SDS011;68936;52.526;13.326;2023-05-07T10:12:11;8.75;;;4.68;;
79468;SDS011;68936;52.526;13.326;2023-05-07T10:14:37;7.85;;;4.63;;
79468;SDS011;68936;52.526;13.326;2023-05-07T10:17:03;7.78;;;4.75;;
79468;SDS011;68936;52.526;13.326;2023-05-07T10:19:29;8.30;;;4.70;;
79468;SDS011;68936;52.526;13.326;2023-05-07T10:22:00;6.80;;;4.72;;
79468;SDS011;68936;52.526;13.326;2023-05-07T10:24:31;8.93;;;4.75;;
79468;SDS011;68936;52.526;13.326;2023-05-07T10:32:11;6.45;;;4.65;;
79468;SDS011;68936;52.526;13.326;2023-05-07T10:34:43;7.85;;;4.70;;
79468;SDS011;68936;52.526;13.326;2023-05-07T10:37:10;7.07;;;4.07;;
79468;SDS011;68936;52.526;13.326;2023-05-07T10:39:37;9.50;;;4.93;;
79468;SDS011;68936;52.526;13.326;2023-05-07T10:42:12;6.70;;;4.47;;
79468;SDS011;68936;52.526;13.326;2023-05-07T10:44:38;7.07;;;4.32;;
79468;SDS011;68936;52.526;13.326;2023-05-07T10:47:08;6.65;;;4.07;;
79468;SDS011;68936;52.526;13.326;2023-05-07T10:49:35;6.82;;;4.38;;
79468;SDS011;68936;52.526;13.326;2023-05-07T10:52:23;8.32;;;4.40;;
79468;SDS011;68936;52.526;13.326;2023-05-07T10:57:36;8.10;;;4.47;;
79468;SDS011;68936;52.526;13.326;2023-05-07T11:05:25;7.50;;;4.10;;
79468;SDS011;68936;52.526;13.326;2023-05-07T11:07:57;7.68;;;4.40;;
79468;SDS011;68936;52.526;13.326;2023-05-07T11:10:46;6.93;;;4.05;;
79468;SDS011;68936;52.526;13.326;2023-05-07T11:13:09;5.82;;;4.05;;
79468;SDS011;68936;52.526;13.326;2023-05-07T11:15:37;7.63;;;4.18;;
79468;SDS011;68936;52.526;13.326;2023-05-07T11:18:06;7.88;;;4.13;;
79468;SDS011;68936;52.526;13.326;2023-05-07T11:26:02;6.00;;;4.05;;
79468;SDS011;68936;52.526;13.326;2023-05-07T11:28:36;6.35;;;3.70;;
79468;SDS011;68936;52.526;13.326;2023-05-07T11:31:02;5.53;;;4.05;;
79468;SDS011;68936;52.526;13.326;2023-05-07T11:33:32;7.05;;;4.88;;
79468;SDS011;68936;52.526;13.326;2023-05-07T11:35:59;8.18;;;4.30;;
79468;SDS011;68936;52.526;13.326;2023-05-07T11:38:28;7.30;;;4.32;;
79468;SDS011;68936;52.526;13.326;2023-05-07T11:40:56;5.95;;;4.28;;
79468;SDS011;68936;52.526;13.326;2023-05-07T11:43:22;6.05;;;3.97;;
79468;SDS011;68936;52.526;13.326;2023-05-07T11:45:48;8.02;;;4.50;;
79468;SDS011;68936;52.526;13.326;2023-05-07T11:48:15;6.85;;;4.30;;
79468;SDS011;68936;52.526;13.326;2023-05-07T11:50:51;9.48;;;4.35;;
79468;SDS011;68936;52.526;13.326;2023-05-07T11:53:24;5.85;;;4.13;;
79468;SDS011;68936;52.526;13.326;2023-05-07T11:55:53;6.28;;;3.97;;
79468;SDS011;68936;52.526;13.326;2023-05-07T11:58:22;5.90;;;4.18;;
79468;SDS011;68936;52.526;13.326;2023-05-07T12:00:49;6.68;;;4.55;;
79468;SDS011;68936;52.526;13.326;2023-05-07T12:03:18;6.78;;;4.10;;
79468;SDS011;68936;52.526;13.326;2023-05-07T12:05:47;5.63;;;4.18;;
79468;SDS011;68936;52.526;13.326;2023-05-07T12:08:20;5.72;;;3.97;;
79468;SDS011;68936;52.526;13.326;2023-05-07T12:10:48;6.97;;;4.45;;
79468;SDS011;68936;52.526;13.326;2023-05-07T12:13:20;6.45;;;4.03;;
79468;SDS011;68936;52.526;13.326;2023-05-07T12:15:48;6.93;;;4.30;;
79468;SDS011;68936;52.526;13.326;2023-05-07T12:18:18;5.95;;;3.92;;
79468;SDS011;68936;52.526;13.326;2023-05-07T12:20:45;8.35;;;4.30;;
79468;SDS011;68936;52.526;13.326;2023-05-07T12:23:12;7.00;;;4.03;;
79468;SDS011;68936;52.526;13.326;2023-05-07T12:25:41;5.38;;;4.00;;
79468;SDS011;68936;52.526;13.326;2023-05-07T12:28:14;5.35;;;3.75;;
79468;SDS011;68936;52.526;13.326;2023-05-07T12:30:40;4.97;;;3.88;;
79468;SDS011;68936;52.526;13.326;2023-05-07T12:33:07;6.20;;;4.07;;
79468;SDS011;68936;52.526;13.326;2023-05-07T12:35:37;5.60;;;4.05;;
79468;SDS011;68936;52.526;13.326;2023-05-07T12:38:08;6.70;;;4.30;;
79468;SDS011;68936;52.526;13.326;2023-05-07T12:40:40;4.88;;;3.63;;
79468;SDS011;68936;52.526;13.326;2023-05-07T12:43:06;5.47;;;4.32;;
79468;SDS011;68936;52.526;13.326;2023-05-07T12:45:38;6.43;;;3.97;;
79468;SDS011;68936;52.526;13.326;2023-05-07T12:48:05;6.07;;;4.32;;
79468;SDS011;68936;52.526;13.326;2023-05-07T12:50:31;6.40;;;4.18;;
79468;SDS011;68936;52.526;13.326;2023-05-07T12:52:58;5.93;;;4.20;;
79468;SDS011;68936;52.526;13.326;2023-05-07T12:55:28;6.03;;;4.40;;
79468;SDS011;68936;52.526;13.326;2023-05-07T12:57:54;6.53;;;4.93;;
79468;SDS011;68936;52.526;13.326;2023-05-07T13:00:34;6.15;;;4.63;;
79468;SDS011;68936;52.526;13.326;2023-05-07T13:03:00;6.93;;;4.22;;
79468;SDS011;68936;52.526;13.326;2023-05-07T13:05:26;4.63;;;3.70;;
79468;SDS011;68936;52.526;13.326;2023-05-07T13:07:56;5.72;;;3.88;;
79468;SDS011;68936;52.526;13.326;2023-05-07T13:10:22;5.75;;;4.40;;
79468;SDS011;68936;52.526;13.326;2023-05-07T13:12:48;5.50;;;4.03;;
79468;SDS011;68936;52.526;13.326;2023-05-07T13:15:15;7.03;;;4.60;;
79468;SDS011;68936;52.526;13.326;2023-05-07T13:17:41;6.72;;;4.63;;
79468;SDS011;68936;52.526;13.326;2023-05-07T13:20:08;7.05;;;4.30;;
79468;SDS011;68936;52.526;13.326;2023-05-07T13:22:35;5.82;;;4.28;;
79468;SDS011;68936;52.526;13.326;2023-05-07T13:25:03;7.13;;;4.40;;
79468;SDS011;68936;52.526;13.326;2023-05-07T13:27:29;5.35;;;3.58;;
79468;SDS011;68936;52.526;13.326;2023-05-07T13:29:58;5.32;;;4.32;;
79468;SDS011;68936;52.526;13.326;2023-05-07T13:32:24;7.22;;;4.07;;
79468;SDS011;68936;52.526;13.326;2023-05-07T13:34:52;5.65;;;3.78;;
79468;SDS011;68936;52.526;13.326;2023-05-07T13:37:23;6.07;;;4.47;;
79468;SDS011;68936;52.526;13.326;2023-05-07T13:39:49;5.68;;;4.28;;
79468;SDS011;68936;52.526;13.326;2023-05-07T13:42:15;5.95;;;4.28;;
79468;SDS011;68936;52.526;13.326;2023-05-07T13:44:41;5.15;;;3.97;;
79468;SDS011;68936;52.526;13.326;2023-05-07T13:47:11;5.85;;;3.78;;
79468;SDS011;68936;52.526;13.326;2023-05-07T13:49:37;6.10;;;4.00;;
79468;SDS011;68936;52.526;13.326;2023-05-07T13:52:03;5.53;;;3.78;;
79468;SDS011;68936;52.526;13.326;2023-05-07T13:54:29;5.78;;;3.92;;
79468;SDS011;68936;52.526;13.326;2023-05-07T13:56:57;6.38;;;4.05;;
79468;SDS011;68936;52.526;13.326;2023-05-07T13:59:23;5.45;;;3.92;;
79468;SDS011;68936;52.526;13.326;2023-05-07T14:01:49;5.22;;;4.03;;
79468;SDS011;68936;52.526;13.326;2023-05-07T14:04:15;5.50;;;4.28;;
79468;SDS011;68936;52.526;13.326;2023-05-07T14:06:41;5.65;;;4.05;;
79468;SDS011;68936;52.526;13.326;2023-05-07T14:09:07;5.63;;;3.67;;
79468;SDS011;68936;52.526;13.326;2023-05-07T14:11:33;6.22;;;4.22;;
79468;SDS011;68936;52.526;13.326;2023-05-07T14:14:02;5.43;;;3.80;;
79468;SDS011;68936;52.526;13.326;2023-05-07T14:16:28;5.43;;;3.90;;
79468;SDS011;68936;52.526;13.326;2023-05-07T14:18:56;5.18;;;4.05;;
79468;SDS011;68936;52.526;13.326;2023-05-07T14:21:22;6.35;;;4.03;;
79468;SDS011;68936;52.526;13.326;2023-05-07T14:23:48;6.03;;;4.03;;
79468;SDS011;68936;52.526;13.326;2023-05-07T14:26:15;5.82;;;3.78;;
79468;SDS011;68936;52.526;13.326;2023-05-07T14:28:41;5.38;;;3.80;;
79468;SDS011;68936;52.526;13.326;2023-05-07T14:31:11;5.38;;;3.60;;
79468;SDS011;68936;52.526;13.326;2023-05-07T14:33:37;4.80;;;3.80;;
79468;SDS011;68936;52.526;13.326;2023-05-07T14:36:03;4.72;;;3.47;;
79468;SDS011;68936;52.526;13.326;2023-05-07T14:38:29;5.32;;;3.80;;
79468;SDS011;68936;52.526;13.326;2023-05-07T14:40:58;5.82;;;4.22;;
79468;SDS011;68936;52.526;13.326;2023-05-07T14:43:24;4.53;;;3.50;;
79468;SDS011;68936;52.526;13.326;2023-05-07T14:45:50;4.57;;;3.67;;
79468;SDS011;68936;52.526;13.326;2023-05-07T14:48:16;6.13;;;3.55;;
79468;SDS011;68936;52.526;13.326;2023-05-07T14:50:42;4.18;;;3.45;;
79468;SDS011;68936;52.526;13.326;2023-05-07T14:53:10;5.35;;;3.80;;